createdAt,value
2023-04-22T00:02:09.712Z,13.68
2023-04-22T00:04:37.770Z,13.67
2023-04-22T00:07:05.378Z,13.78
2023-04-22T00:09:32.809Z,13.76
2023-04-22T00:12:01.857Z,13.79
2023-04-22T00:14:29.257Z,13.63
2023-04-22T00:16:57.464Z,13.82
2023-04-22T00:19:25.675Z,13.74
2023-04-22T00:21:53.164Z,13.78
2023-04-22T00:24:20.579Z,13.88
2023-04-22T00:26:48.246Z,13.80
2023-04-22T00:29:15.659Z,13.88
2023-04-22T00:31:43.063Z,13.81
2023-04-22T00:34:10.849Z,13.93
2023-04-22T00:36:38.220Z,13.83
2023-04-22T00:39:06.433Z,14.00
2023-04-22T00:41:34.493Z,13.97
2023-04-22T00:44:01.919Z,13.87
2023-04-22T00:46:29.546Z,13.91
2023-04-22T00:48:57.510Z,14.06
2023-04-22T00:51:24.900Z,14.02
2023-04-22T00:53:52.507Z,14.00
2023-04-22T00:56:20.782Z,13.98
2023-04-22T00:58:48.233Z,14.07
2023-04-22T01:01:15.823Z,14.03
2023-04-22T01:03:43.695Z,14.02
2023-04-22T01:06:11.420Z,13.99
2023-04-22T01:08:40.889Z,13.89
2023-04-22T01:11:08.617Z,14.01
2023-04-22T01:13:38.153Z,14.06
2023-04-22T01:16:08.918Z,13.95
2023-04-22T01:18:37.233Z,13.97
2023-04-22T01:21:05.572Z,13.97
2023-04-22T01:23:33.016Z,13.89
2023-04-22T01:26:00.849Z,13.92
2023-04-22T01:28:28.778Z,13.92
2023-04-22T01:30:56.367Z,13.93
2023-04-22T01:33:24.210Z,13.80
2023-04-22T01:35:52.056Z,13.89
2023-04-22T01:38:19.644Z,13.92
2023-04-22T01:40:47.407Z,13.89
2023-04-22T01:43:14.824Z,13.84
2023-04-22T01:45:42.599Z,13.79
2023-04-22T01:48:11.265Z,13.76
2023-04-22T01:50:38.726Z,13.58
2023-04-22T01:53:07.555Z,13.75
2023-04-22T01:55:37.982Z,13.54
2023-04-22T01:58:05.693Z,13.52
2023-04-22T02:00:33.179Z,13.40
2023-04-22T02:03:01.041Z,13.56
2023-04-22T02:05:28.614Z,13.46
2023-04-22T02:07:56.434Z,13.51
2023-04-22T02:10:24.145Z,13.40
2023-04-22T02:12:51.510Z,13.45
2023-04-22T02:15:18.951Z,13.39
2023-04-22T02:17:47.030Z,13.46
2023-04-22T02:20:14.664Z,13.43
2023-04-22T02:22:43.559Z,13.32
2023-04-22T02:25:12.280Z,13.40
2023-04-22T02:27:40.030Z,13.37
2023-04-22T02:30:09.696Z,13.28
2023-04-22T02:32:38.865Z,13.30
2023-04-22T02:35:06.987Z,13.43
2023-04-22T02:37:34.448Z,13.45
2023-04-22T02:40:02.249Z,13.29
2023-04-22T02:42:30.475Z,13.40
2023-04-22T02:44:57.915Z,13.31
2023-04-22T02:47:25.700Z,13.37
2023-04-22T02:49:53.167Z,13.32
2023-04-22T02:52:20.776Z,13.36
2023-04-22T02:54:48.547Z,13.17
2023-04-22T02:57:15.987Z,13.27
2023-04-22T02:59:43.563Z,13.27
2023-04-22T03:02:13.340Z,13.35
2023-04-22T03:04:41.600Z,13.35
2023-04-22T03:07:09.554Z,13.37
2023-04-22T03:09:37.407Z,13.33
2023-04-22T03:12:05.226Z,13.33
2023-04-22T03:14:32.685Z,13.30
2023-04-22T03:17:00.425Z,13.27
2023-04-22T03:19:28.067Z,13.25
2023-04-22T03:21:56.555Z,13.25
2023-04-22T03:24:24.310Z,13.31
2023-04-22T03:26:52.003Z,13.16
2023-04-22T03:29:19.465Z,13.26
2023-04-22T03:31:47.263Z,13.25
2023-04-22T03:34:14.972Z,13.20
2023-04-22T03:36:42.962Z,13.27
2023-04-22T03:39:11.280Z,13.15
2023-04-22T03:41:39.427Z,13.14
2023-04-22T03:44:06.827Z,12.98
2023-04-22T03:46:35.009Z,13.04
2023-04-22T03:49:03.251Z,13.08
2023-04-22T03:51:32.248Z,13.12
2023-04-22T03:54:00.802Z,13.10
2023-04-22T03:56:28.886Z,12.95
2023-04-22T03:58:56.528Z,13.00
2023-04-22T04:01:24.566Z,12.98
2023-04-22T04:03:53.685Z,12.88
2023-04-22T04:06:21.742Z,12.87
2023-04-22T04:08:49.190Z,12.77
2023-04-22T04:11:17.089Z,12.76
2023-04-22T04:13:44.805Z,12.83
2023-04-22T04:16:12.874Z,12.85
2023-04-22T04:18:41.472Z,12.79
2023-04-22T04:21:09.033Z,12.77
2023-04-22T04:23:37.922Z,12.93
2023-04-22T04:26:05.783Z,12.91
2023-04-22T04:28:35.240Z,12.82
2023-04-22T04:31:03.058Z,12.82
2023-04-22T04:33:32.542Z,12.86
2023-04-22T04:36:00.699Z,12.88
2023-04-22T04:38:29.008Z,12.89
2023-04-22T04:40:56.858Z,12.93
2023-04-22T04:43:25.881Z,13.02
2023-04-22T04:45:54.143Z,13.04
2023-04-22T04:48:25.003Z,13.08
2023-04-22T04:50:54.203Z,13.21
2023-04-22T04:53:22.575Z,13.18
2023-04-22T04:55:50.009Z,13.30
2023-04-22T04:58:17.971Z,13.30
2023-04-22T05:00:46.937Z,13.34
2023-04-22T05:03:15.803Z,13.39
2023-04-22T05:05:46.276Z,13.51
2023-04-22T05:08:14.049Z,13.53
2023-04-22T05:10:42.493Z,13.71
2023-04-22T05:13:09.990Z,13.63
2023-04-22T05:15:37.855Z,13.73
2023-04-22T05:18:05.594Z,13.82
2023-04-22T05:20:35.907Z,13.88
2023-04-22T05:23:04.467Z,14.02
2023-04-22T05:25:32.641Z,14.15
2023-04-22T05:28:00.893Z,14.24
2023-04-22T05:30:30.003Z,14.33
2023-04-22T05:32:57.780Z,14.54
2023-04-22T05:35:25.231Z,14.63
2023-04-22T05:37:53.156Z,14.66
2023-04-22T05:40:20.791Z,14.96
2023-04-22T05:42:48.316Z,15.18
2023-04-22T05:45:16.162Z,15.41
2023-04-22T05:47:43.765Z,15.52
2023-04-22T05:50:11.574Z,15.68
2023-04-22T05:52:39.906Z,16.05
2023-04-22T05:55:08.215Z,16.12
2023-04-22T05:57:35.664Z,16.10
2023-04-22T06:00:04.952Z,16.39
2023-04-22T06:02:41.219Z,16.45
2023-04-22T06:05:09.760Z,16.66
2023-04-22T06:07:38.331Z,16.84
2023-04-22T06:10:07.575Z,17.04
2023-04-22T06:12:35.421Z,17.09
2023-04-22T06:15:03.158Z,17.35
2023-04-22T06:17:31.369Z,17.62
2023-04-22T06:19:59.391Z,17.91
2023-04-22T06:22:26.944Z,18.06
2023-04-22T06:24:54.417Z,18.24
2023-04-22T06:27:22.174Z,18.36
2023-04-22T06:29:49.666Z,18.53
2023-04-22T06:32:17.249Z,18.60
2023-04-22T06:34:45.140Z,18.73
2023-04-22T06:37:13.134Z,18.82
2023-04-22T06:39:41.013Z,18.83
2023-04-22T06:42:10.235Z,18.77
2023-04-22T06:44:38.524Z,19.01
2023-04-22T06:47:06.485Z,19.22
2023-04-22T06:49:38.637Z,19.76
2023-04-22T06:52:07.687Z,19.85
2023-04-22T06:54:35.282Z,19.97
2023-04-22T06:57:03.334Z,20.12
2023-04-22T06:59:30.819Z,20.20
2023-04-22T07:01:58.450Z,20.37
2023-04-22T07:04:29.286Z,20.61
2023-04-22T07:06:58.547Z,20.82
2023-04-22T07:09:26.653Z,20.97
2023-04-22T07:11:54.353Z,21.23
2023-04-22T07:14:21.785Z,21.42
2023-04-22T07:16:49.480Z,21.67
2023-04-22T07:19:17.011Z,22.01
2023-04-22T07:21:44.538Z,22.15
2023-04-22T07:24:13.240Z,22.29
2023-04-22T07:26:41.690Z,22.65
2023-04-22T07:29:09.164Z,22.87
2023-04-22T07:31:36.965Z,22.86
2023-04-22T07:34:04.714Z,23.12
2023-04-22T07:36:32.787Z,23.37
2023-04-22T07:39:00.460Z,23.40
2023-04-22T07:41:27.968Z,23.51
2023-04-22T07:43:55.752Z,23.51
2023-04-22T07:46:23.648Z,23.53
2023-04-22T07:48:51.146Z,23.63
2023-04-22T07:51:18.545Z,23.75
2023-04-22T07:53:46.405Z,23.65
2023-04-22T07:56:13.829Z,23.69
2023-04-22T07:58:41.205Z,23.70
2023-04-22T08:01:08.940Z,23.66
2023-04-22T08:03:36.951Z,23.62
2023-04-22T08:06:04.514Z,23.77
2023-04-22T08:08:31.950Z,23.63
2023-04-22T08:10:59.594Z,23.38
2023-04-22T08:13:27.056Z,23.54
2023-04-22T08:15:54.477Z,23.39
2023-04-22T08:18:22.248Z,23.24
2023-04-22T08:20:50.633Z,23.29
2023-04-22T08:23:18.087Z,23.39
2023-04-22T08:25:45.792Z,23.31
2023-04-22T08:28:13.211Z,23.37
2023-04-22T08:30:41.013Z,23.54
2023-04-22T08:33:08.780Z,23.39
2023-04-22T08:35:36.625Z,23.45
2023-04-22T08:38:04.023Z,23.58
2023-04-22T08:40:31.723Z,23.69
2023-04-22T08:42:59.194Z,23.41
2023-04-22T08:45:26.770Z,23.29
2023-04-22T08:47:54.721Z,23.23
2023-04-22T08:50:22.445Z,23.54
2023-04-22T08:52:49.910Z,23.52
2023-04-22T08:55:17.723Z,23.63
2023-04-22T08:57:45.388Z,23.68
2023-04-22T09:00:13.454Z,23.71
2023-04-22T09:02:44.942Z,23.78
2023-04-22T09:05:14.084Z,23.58
2023-04-22T09:07:42.051Z,23.69
2023-04-22T09:10:11.804Z,23.98
2023-04-22T09:12:41.178Z,23.81
2023-04-22T09:15:09.870Z,23.82
2023-04-22T09:17:41.416Z,23.79
2023-04-22T09:20:09.865Z,24.03
2023-04-22T09:22:42.820Z,23.98
2023-04-22T09:25:20.632Z,24.22
2023-04-22T09:27:52.135Z,24.08
2023-04-22T09:30:28.619Z,24.30
2023-04-22T09:33:00.563Z,24.20
2023-04-22T09:35:33.533Z,24.23
2023-04-22T09:38:02.680Z,24.03
2023-04-22T09:40:31.098Z,24.19
2023-04-22T09:43:02.544Z,24.17
2023-04-22T09:45:35.400Z,23.85
2023-04-22T09:48:04.208Z,24.01
2023-04-22T09:50:31.937Z,24.11
2023-04-22T09:53:05.365Z,24.30
2023-04-22T09:55:36.352Z,24.18
2023-04-22T09:58:14.743Z,24.42
2023-04-22T10:00:52.472Z,24.33
2023-04-22T10:03:20.446Z,24.43
2023-04-22T10:05:48.113Z,24.39
2023-04-22T10:08:16.780Z,24.53
2023-04-22T10:10:44.940Z,24.69
2023-04-22T10:13:12.465Z,24.82
2023-04-22T10:15:42.526Z,24.86
2023-04-22T10:18:13.036Z,25.01
2023-04-22T10:20:42.305Z,25.12
2023-04-22T10:23:16.134Z,25.13
2023-04-22T10:25:48.817Z,25.15
2023-04-22T10:28:17.585Z,25.30
2023-04-22T10:30:45.268Z,25.37
2023-04-22T10:33:23.670Z,25.29
2023-04-22T10:36:12.768Z,25.43
2023-04-22T10:38:42.381Z,25.58
2023-04-22T10:41:17.013Z,25.65
2023-04-22T10:43:48.779Z,25.59
2023-04-22T10:46:33.063Z,25.28
2023-04-22T10:49:07.144Z,25.22
2023-04-22T10:51:40.882Z,25.05
2023-04-22T10:54:31.412Z,25.06
2023-04-22T10:57:16.183Z,24.79
2023-04-22T10:59:54.458Z,24.72
2023-04-22T11:02:22.988Z,24.34
2023-04-22T11:04:54.427Z,24.07
2023-04-22T11:07:28.082Z,24.08
2023-04-22T11:10:05.407Z,24.15
2023-04-22T11:12:35.996Z,24.06
2023-04-22T11:15:08.029Z,23.85
2023-04-22T11:17:36.633Z,23.84
2023-04-22T11:20:05.267Z,23.77
2023-04-22T11:22:37.299Z,23.54
2023-04-22T11:25:06.077Z,23.36
2023-04-22T11:27:33.523Z,23.32
2023-04-22T11:30:00.875Z,23.12
2023-04-22T11:32:29.182Z,23.15
2023-04-22T11:34:57.860Z,23.17
2023-04-22T11:37:25.416Z,23.27
2023-04-22T11:40:13.557Z,23.29
2023-04-22T11:42:40.771Z,23.40
2023-04-22T11:45:09.056Z,23.30
2023-04-22T11:47:36.667Z,23.50
2023-04-22T11:50:09.325Z,23.45
2023-04-22T11:52:46.001Z,23.43
2023-04-22T11:55:14.893Z,23.36
2023-04-22T11:57:43.339Z,23.46
2023-04-22T12:00:13.655Z,23.54
2023-04-22T12:02:42.019Z,23.46
2023-04-22T12:05:11.803Z,23.52
2023-04-22T12:07:39.958Z,23.58
2023-04-22T12:10:08.174Z,23.59
2023-04-22T12:12:37.162Z,23.66
2023-04-22T12:15:13.608Z,23.68
2023-04-22T12:17:45.046Z,23.67
2023-04-22T12:20:13.083Z,23.79
2023-04-22T12:22:40.497Z,23.82
2023-04-22T12:25:09.921Z,23.73
2023-04-22T12:27:37.414Z,23.68
2023-04-22T12:30:06.066Z,23.73
2023-04-22T12:32:34.617Z,23.69
2023-04-22T12:35:02.096Z,23.67
2023-04-22T12:37:29.462Z,23.80
2023-04-22T12:39:57.182Z,23.87
2023-04-22T12:42:24.590Z,23.81
2023-04-22T12:44:51.952Z,23.84
2023-04-22T12:47:19.885Z,24.15
2023-04-22T12:49:47.739Z,24.01
2023-04-22T12:52:15.267Z,24.16
2023-04-22T12:54:42.935Z,24.33
2023-04-22T12:57:10.423Z,24.36
2023-04-22T12:59:38.078Z,24.34
2023-04-22T13:02:06.136Z,24.50
2023-04-22T13:04:33.731Z,24.71
2023-04-22T13:07:01.202Z,24.61
2023-04-22T13:09:28.940Z,24.94
2023-04-22T13:11:56.346Z,25.05
2023-04-22T13:14:23.793Z,25.02
2023-04-22T13:16:52.058Z,25.09
2023-04-22T13:19:19.843Z,24.92
2023-04-22T13:21:47.251Z,24.96
2023-04-22T13:24:14.928Z,25.04
2023-04-22T13:26:42.446Z,24.81
2023-04-22T13:29:14.119Z,24.81
2023-04-22T13:31:42.656Z,24.76
2023-04-22T13:34:11.234Z,24.79
2023-04-22T13:36:38.635Z,24.77
2023-04-22T13:39:06.469Z,24.77
2023-04-22T13:41:33.990Z,24.63
2023-04-22T13:44:02.007Z,24.54
2023-04-22T13:46:30.001Z,24.37
2023-04-22T13:48:58.226Z,24.76
2023-04-22T13:51:25.843Z,24.57
2023-04-22T13:53:53.575Z,24.72
2023-04-22T13:56:20.993Z,24.90
2023-04-22T13:58:48.914Z,24.86
2023-04-22T14:01:16.898Z,24.75
2023-04-22T14:03:45.126Z,24.67
2023-04-22T14:06:12.663Z,24.61
2023-04-22T14:08:40.554Z,24.58
2023-04-22T14:11:08.949Z,24.61
2023-04-22T14:13:36.770Z,24.43
2023-04-22T14:16:09.734Z,24.27
2023-04-22T14:18:38.634Z,24.40
2023-04-22T14:21:09.186Z,24.39
2023-04-22T14:23:38.125Z,24.31
2023-04-22T14:26:08.333Z,24.29
2023-04-22T14:28:36.725Z,24.22
2023-04-22T14:31:04.323Z,24.14
2023-04-22T14:33:32.511Z,24.07
2023-04-22T14:36:00.007Z,24.15
2023-04-22T14:38:27.474Z,24.18
2023-04-22T14:40:55.283Z,24.17
2023-04-22T14:43:25.405Z,24.17
2023-04-22T14:45:53.102Z,24.05
2023-04-22T14:48:20.852Z,24.10
2023-04-22T14:50:48.252Z,24.16
2023-04-22T14:53:15.985Z,24.24
2023-04-22T14:55:43.687Z,24.29
2023-04-22T14:58:11.080Z,24.06
2023-04-22T15:00:38.586Z,24.22
2023-04-22T15:03:06.463Z,24.22
2023-04-22T15:05:33.965Z,24.38
2023-04-22T15:08:01.387Z,24.36
2023-04-22T15:10:29.052Z,24.42
2023-04-22T15:12:56.800Z,24.52
2023-04-22T15:15:24.299Z,24.67
2023-04-22T15:17:52.060Z,24.52
2023-04-22T15:20:22.715Z,24.46
2023-04-22T15:22:50.154Z,24.56
2023-04-22T15:25:18.458Z,24.45
2023-04-22T15:27:46.529Z,24.45
2023-04-22T15:30:14.473Z,24.38
2023-04-22T15:32:42.192Z,24.34
2023-04-22T15:35:10.045Z,24.27
2023-04-22T15:37:37.503Z,23.93
2023-04-22T15:40:06.895Z,24.11
2023-04-22T15:42:34.273Z,24.22
2023-04-22T15:45:03.873Z,24.23
2023-04-22T15:47:33.062Z,24.11
2023-04-22T15:50:06.719Z,24.27
2023-04-22T15:52:35.197Z,24.08
2023-04-22T15:55:02.613Z,24.20
2023-04-22T15:57:34.394Z,24.25
2023-04-22T16:00:12.680Z,24.14
2023-04-22T16:02:43.247Z,24.02
2023-04-22T16:05:11.966Z,24.13
2023-04-22T16:07:40.242Z,24.13
2023-04-22T16:10:09.009Z,24.03
2023-04-22T16:12:36.835Z,23.92
2023-04-22T16:15:04.647Z,23.77
2023-04-22T16:17:32.276Z,23.72
2023-04-22T16:20:00.066Z,23.83
2023-04-22T16:22:27.482Z,23.73
2023-04-22T16:24:54.913Z,23.76
2023-04-22T16:27:22.607Z,23.63
2023-04-22T16:29:50.051Z,23.70
2023-04-22T16:32:17.441Z,23.83
2023-04-22T16:34:45.142Z,23.83
2023-04-22T16:37:12.525Z,23.62
2023-04-22T16:39:40.220Z,23.52
2023-04-22T16:42:08.197Z,23.42
2023-04-22T16:44:35.630Z,23.45
2023-04-22T16:47:03.131Z,23.52
2023-04-22T16:49:31.223Z,23.58
2023-04-22T16:51:59.017Z,23.48
2023-04-22T16:54:26.490Z,23.46
2023-04-22T16:56:54.153Z,23.42
2023-04-22T16:59:21.703Z,23.30
2023-04-22T17:01:49.231Z,23.30
2023-04-22T17:04:17.729Z,23.16
2023-04-22T17:06:45.997Z,23.21
2023-04-22T17:09:13.379Z,23.09
2023-04-22T17:11:41.101Z,23.09
2023-04-22T17:14:08.582Z,23.02
2023-04-22T17:16:36.218Z,23.07
2023-04-22T17:19:05.242Z,23.12
2023-04-22T17:21:34.334Z,22.94
2023-04-22T17:24:03.772Z,23.04
2023-04-22T17:26:32.384Z,22.95
2023-04-22T17:28:59.768Z,22.88
2023-04-22T17:31:27.225Z,22.72
2023-04-22T17:33:54.982Z,22.57
2023-04-22T17:36:22.417Z,22.50
2023-04-22T17:38:49.903Z,22.46
2023-04-22T17:41:18.543Z,22.47
2023-04-22T17:43:46.022Z,22.40
2023-04-22T17:46:13.495Z,22.40
2023-04-22T17:48:41.941Z,22.21
2023-04-22T17:51:10.150Z,22.07
2023-04-22T17:53:39.872Z,22.00
2023-04-22T17:56:08.590Z,21.94
2023-04-22T17:58:38.533Z,21.89
2023-04-22T18:01:06.459Z,21.85
2023-04-22T18:03:34.723Z,21.81
2023-04-22T18:06:02.705Z,21.68
2023-04-22T18:08:30.770Z,21.69
2023-04-22T18:10:58.625Z,21.50
2023-04-22T18:13:26.082Z,21.38
2023-04-22T18:15:53.589Z,21.22
2023-04-22T18:18:21.352Z,21.11
2023-04-22T18:20:48.809Z,20.97
2023-04-22T18:23:16.172Z,20.88
2023-04-22T18:25:43.930Z,20.74
2023-04-22T18:28:11.295Z,20.65
2023-04-22T18:30:38.744Z,20.61
2023-04-22T18:33:06.530Z,20.37
2023-04-22T18:35:35.601Z,20.26
2023-04-22T18:38:03.068Z,20.27
2023-04-22T18:40:30.796Z,20.16
2023-04-22T18:42:58.321Z,20.05
2023-04-22T18:45:25.782Z,19.87
2023-04-22T18:47:53.522Z,19.85
2023-04-22T18:50:27.157Z,19.64
2023-04-22T18:52:54.888Z,19.49
2023-04-22T18:55:22.479Z,19.35
2023-04-22T18:57:49.893Z,19.33
2023-04-22T19:00:17.904Z,19.24
2023-04-22T19:02:46.013Z,19.12
2023-04-22T19:05:14.556Z,18.96
2023-04-22T19:07:44.455Z,18.89
2023-04-22T19:10:12.853Z,18.80
2023-04-22T19:12:40.447Z,18.77
2023-04-22T19:15:08.601Z,18.59
2023-04-22T19:17:36.115Z,18.55
2023-04-22T19:20:05.211Z,18.45
2023-04-22T19:22:32.973Z,18.35
2023-04-22T19:25:01.082Z,18.21
2023-04-22T19:27:28.727Z,18.26
2023-04-22T19:29:56.403Z,18.16
2023-04-22T19:32:24.531Z,18.05
2023-04-22T19:34:52.258Z,17.99
2023-04-22T19:37:20.192Z,17.85
2023-04-22T19:39:47.928Z,17.88
2023-04-22T19:42:15.759Z,17.81
2023-04-22T19:44:47.252Z,17.75
2023-04-22T19:47:15.679Z,17.61
2023-04-22T19:49:43.984Z,17.54
2023-04-22T19:52:13.843Z,17.39
2023-04-22T19:54:41.713Z,17.33
2023-04-22T19:57:10.429Z,17.38
2023-04-22T19:59:40.048Z,17.25
2023-04-22T20:02:09.640Z,17.17
2023-04-22T20:04:38.220Z,17.15
2023-04-22T20:07:06.904Z,17.09
2023-04-22T20:09:34.974Z,17.16
2023-04-22T20:12:03.374Z,17.07
2023-04-22T20:14:31.546Z,16.96
2023-04-22T20:16:59.178Z,16.86
2023-04-22T20:19:28.343Z,16.84
2023-04-22T20:21:57.330Z,16.75
2023-04-22T20:24:26.713Z,16.73
2023-04-22T20:26:55.039Z,16.64
2023-04-22T20:29:22.764Z,16.56
2023-04-22T20:31:50.374Z,16.42
2023-04-22T20:34:18.278Z,16.41
2023-04-22T20:36:46.265Z,16.34
2023-04-22T20:39:14.540Z,16.32
2023-04-22T20:41:42.562Z,16.22
2023-04-22T20:44:10.669Z,16.24
2023-04-22T20:46:38.386Z,16.20
2023-04-22T20:49:07.068Z,16.07
2023-04-22T20:51:35.223Z,16.01
2023-04-22T20:54:03.846Z,15.94
2023-04-22T20:56:39.904Z,15.92
2023-04-22T20:59:07.474Z,15.80
2023-04-22T21:01:35.512Z,15.80
2023-04-22T21:04:03.754Z,15.75
2023-04-22T21:06:35.053Z,15.75
2023-04-22T21:09:03.382Z,15.71
2023-04-22T21:11:31.158Z,15.52
2023-04-22T21:13:59.289Z,15.48
2023-04-22T21:16:29.763Z,15.49
2023-04-22T21:18:59.782Z,15.51
2023-04-22T21:21:34.888Z,15.44
2023-04-22T21:24:04.903Z,15.50
2023-04-22T21:26:34.070Z,15.27
2023-04-22T21:29:01.701Z,15.15
2023-04-22T21:31:29.389Z,15.16
2023-04-22T21:33:57.455Z,15.21
2023-04-22T21:36:25.256Z,15.23
2023-04-22T21:38:52.934Z,15.17
2023-04-22T21:41:20.954Z,15.06
2023-04-22T21:43:48.767Z,14.98
2023-04-22T21:46:16.214Z,14.96
2023-04-22T21:48:44.344Z,14.88
2023-04-22T21:51:11.912Z,14.93
2023-04-22T21:53:39.279Z,14.86
2023-04-22T21:56:06.961Z,14.78
2023-04-22T21:58:34.400Z,14.80
2023-04-22T22:01:01.820Z,14.79
2023-04-22T22:03:29.682Z,14.69
2023-04-22T22:05:57.472Z,14.64
2023-04-22T22:08:24.865Z,14.73
2023-04-22T22:10:52.604Z,14.60
2023-04-22T22:13:20.069Z,14.50
2023-04-22T22:15:47.679Z,14.62
2023-04-22T22:18:15.665Z,14.44
2023-04-22T22:20:44.459Z,14.43
2023-04-22T22:23:12.074Z,14.45
2023-04-22T22:25:39.724Z,14.36
2023-04-22T22:28:07.131Z,14.38
2023-04-22T22:30:34.567Z,14.36
2023-04-22T22:33:02.332Z,14.33
2023-04-22T22:35:30.180Z,14.38
2023-04-22T22:37:57.609Z,14.25
2023-04-22T22:40:25.458Z,14.18
2023-04-22T22:42:53.205Z,14.13
2023-04-22T22:45:20.584Z,14.23
2023-04-22T22:47:48.424Z,14.18
2023-04-22T22:50:15.920Z,14.26
2023-04-22T22:52:43.311Z,14.16
2023-04-22T22:55:11.077Z,14.15
2023-04-22T22:57:38.486Z,14.16
2023-04-22T23:00:07.084Z,14.10
2023-04-22T23:02:35.115Z,14.15
2023-04-22T23:05:02.753Z,14.04
2023-04-22T23:07:30.228Z,13.97
2023-04-22T23:09:58.037Z,13.98
2023-04-22T23:12:25.589Z,13.98
2023-04-22T23:14:53.222Z,13.86
2023-04-22T23:17:22.439Z,13.92
2023-04-22T23:19:51.894Z,13.87
2023-04-22T23:22:19.351Z,13.82
2023-04-22T23:24:47.611Z,13.90
2023-04-22T23:27:16.209Z,13.74
2023-04-22T23:29:44.354Z,13.81
2023-04-22T23:32:14.952Z,13.74
2023-04-22T23:34:44.935Z,13.78
2023-04-22T23:37:14.894Z,13.74
2023-04-22T23:39:42.555Z,13.76
2023-04-22T23:42:10.828Z,13.66
2023-04-22T23:44:38.854Z,13.45
2023-04-22T23:47:06.506Z,13.50
2023-04-22T23:49:34.130Z,13.65
2023-04-22T23:52:01.810Z,13.54
2023-04-22T23:54:30.152Z,13.52
2023-04-22T23:56:58.029Z,13.44
2023-04-22T23:59:26.072Z,13.46
